Medi Chiba — 3FUD5 — position and weather

sailwx.info

Track history (hours):
 
Tides and Currents Weather Stations Pressure Air Temp Water Temp Dewpoint Dewpoint Depression Visibility Wind Speed Wind Dir Waves Ship Positions

Medi Chiba

Last reported at 2017-Sep-12 20:13 UTC. Time now 2017-Sep-26 02:06 UTC.
Position N 34°58' W 024°34'.
Warning: this ship's position is 13 days out of date.

Length 229 m; draft 8.2 m.

Type: Cargo ship. MMSI: 356242000.

Date/timePositionNaut miles runAvg speedWind from/ knotsBaromVisibWave heightAir tempDewpointWater temp
2017-Sep-12 20:13N 34°58' W 024°34'  
2017-Sep-09 17:02N 35°58' W 005°38'0 8.7
2017-Sep-09 17:00N 35°58' W 005°38'5 9.2
2017-Sep-09 16:30N 35°59' W 005°33'5 9.2
2017-Sep-09 16:01N 36°01' W 005°27'5 9.3
2017-Sep-09 15:31N 36°03' W 005°23'3 4.7
2017-Sep-09 14:47N 36°06' W 005°21'0 0.1
2017-Sep-09 14:29N 36°06' W 005°21'0 0.1
2017-Sep-09 13:11N 36°07' W 005°21'0 0.0
2017-Sep-09 12:44N 36°07' W 005°21'0 0.2
2017-Sep-09 12:26N 36°07' W 005°21'0 0.1
2017-Sep-09 11:59N 36°07' W 005°21'0 0.2
2017-Sep-09 11:23N 36°07' W 005°22'0 0.1
2017-Sep-09 10:59N 36°07' W 005°22'0 0.2
2017-Sep-09 10:26N 36°07' W 005°21'0 0.0
2017-Sep-09 09:59N 36°07' W 005°21'0 0.2
2017-Sep-09 09:29N 36°06' W 005°21'0 0.1
2017-Sep-09 08:41N 36°06' W 005°21'0 0.1
2017-Sep-09 08:29N 36°06' W 005°21'0 0.1
2017-Sep-09 07:47N 36°06' W 005°21'0 0.1
2017-Sep-09 07:26N 36°06' W 005°21'0 0.1
2017-Sep-09 06:53N 36°06' W 005°21'0 0.2
2017-Sep-09 06:29N 36°06' W 005°21'0 0.1
2017-Sep-09 05:59N 36°06' W 005°21'0 0.1
2017-Sep-09 05:29N 36°06' W 005°21'0 0.0
2017-Sep-09 04:59N 36°06' W 005°21'0 0.1
2017-Sep-09 04:29N 36°06' W 005°21'0 0.0
2017-Sep-09 03:59N 36°06' W 005°22'0 0.1
2017-Sep-09 03:30N 36°06' W 005°22'1 1.8
2017-Sep-09 03:00N 36°05' W 005°21'1 2.9
2017-Sep-09 02:31N 36°05' W 005°19'2 4.6
2017-Sep-09 02:01N 36°04' W 005°17'611.4
2017-Sep-09 01:31N 36°05' W 005°10'611.1
2017-Sep-09 01:00N 36°06' W 005°03'25712.2
2017-Sep-08 03:56N 36°43' E 000°13'613.3
2017-Sep-08 03:28N 36°45' E 000°21'613.3
2017-Sep-08 03:00N 36°46' E 000°28'713.2
2017-Sep-08 02:26N 36°49' E 000°37'613.3
2017-Sep-08 02:00N 36°50' E 000°44'1013.3
2017-Sep-08 01:15N 36°53' E 000°56'39313.2
2017-Sep-06 19:22N 37°59' E 009°04'512.7
2017-Sep-06 19:00N 37°59' E 009°10'4212.8
2017-Sep-06 15:43N 37°60' E 010°04'312.8
2017-Sep-06 15:29N 37°59' E 010°07'612.6
2017-Sep-06 15:00N 37°60' E 010°15'612.7
2017-Sep-06 14:30N 37°60' E 010°23'712.6
2017-Sep-06 13:57N 37°60' E 010°32'1512.7
2017-Sep-06 12:44N 37°60' E 010°51'312.6
2017-Sep-06 12:30N 37°60' E 010°55'13312.7
2017-Sep-06 02:02N 37°02' E 013°26'112.0
2017-Sep-06 01:59N 37°02' E 013°27'912.2
2017-Sep-06 01:12N 36°58' E 013°37'212.3
2017-Sep-06 01:01N 36°57' E 013°40'612.3
2017-Sep-06 00:30N 36°54' E 013°47'612.5
2017-Sep-06 00:00N 36°52' E 013°54'612.6
2017-Sep-05 23:30N 36°49' E 014°02'612.7
2017-Sep-05 23:01N 36°47' E 014°09'612.5
2017-Sep-05 22:30N 36°44' E 014°16'612.5
2017-Sep-05 22:00N 36°41' E 014°23'612.2
2017-Sep-05 21:30N 36°39' E 014°30'612.4
2017-Sep-05 21:01N 36°37' E 014°37'1012.5
2017-Sep-05 20:12N 36°34' E 014°49'412.4
2017-Sep-05 19:54N 36°33' E 014°54'1712.5
2017-Sep-05 18:32N 36°34' E 015°15'8012.3
2017-Sep-05 12:02N 37°39' E 016°14'112.8
2017-Sep-05 12:00N 37°40' E 016°14'12012.7
2017-Sep-05 02:30N 39°29' E 017°18'713.6
2017-Sep-05 01:58N 39°36' E 017°16'613.2
2017-Sep-05 01:29N 39°42' E 017°15'713.0
2017-Sep-05 00:59N 39°49' E 017°13'612.8
2017-Sep-05 00:30N 39°55' E 017°12'612.8
2017-Sep-05 00:00N 40°01' E 017°11'612.9
2017-Sep-04 23:30N 40°07' E 017°09'713.0
2017-Sep-04 23:00N 40°14' E 017°08'713.2
2017-Sep-04 22:30N 40°20' E 017°07'5 9.8
2017-Sep-04 22:00N 40°25' E 017°09'4 7.3
2017-Sep-04 21:30N 40°27' E 017°13'1 2.6
2017-Sep-04 20:59N 40°28' E 017°13'0 0.0
2017-Sep-04 20:29N 40°28' E 017°13'0 0.0
2017-Sep-04 19:59N 40°28' E 017°13'0 0.0
2017-Sep-04 19:29N 40°28' E 017°13'0 0.0
2017-Sep-04 18:59N 40°28' E 017°13'0 0.0
2017-Sep-04 18:29N 40°28' E 017°13'0 0.0
2017-Sep-04 17:59N 40°28' E 017°13'0 0.0
2017-Sep-04 17:29N 40°28' E 017°13'0 0.0
2017-Sep-04 16:59N 40°28' E 017°13'0 0.0
2017-Sep-04 16:29N 40°28' E 017°13'0 0.0
2017-Sep-04 15:59N 40°28' E 017°13'0 0.0
2017-Sep-04 15:29N 40°28' E 017°13'0 0.0
2017-Sep-04 14:59N 40°28' E 017°13'0 0.0
2017-Sep-04 14:29N 40°28' E 017°13'0 0.0
2017-Sep-04 13:59N 40°28' E 017°13'0 0.0
2017-Sep-04 13:29N 40°28' E 017°13'0 0.0
2017-Sep-04 12:59N 40°28' E 017°13'0 0.0
2017-Sep-04 12:29N 40°28' E 017°13'0 0.0
2017-Sep-04 11:59N 40°28' E 017°13'0 0.0
2017-Sep-04 11:29N 40°28' E 017°13'0 0.0
2017-Sep-04 10:59N 40°28' E 017°13'0 0.0
2017-Sep-04 10:26N 40°28' E 017°13'0 0.0
2017-Sep-04 09:59N 40°28' E 017°13'0 0.0
2017-Sep-04 09:29N 40°28' E 017°13'0 0.0
2017-Sep-04 08:59N 40°28' E 017°13'0 0.0
2017-Sep-04 08:29N 40°28' E 017°13'0 0.0
2017-Sep-04 07:59N 40°28' E 017°13'0 0.0
2017-Sep-04 07:29N 40°28' E 017°13'0 0.0
2017-Sep-04 06:59N 40°28' E 017°13'0 0.0
2017-Sep-04 06:29N 40°28' E 017°13'0 0.0
2017-Sep-04 05:59N 40°28' E 017°13'0 0.0
2017-Sep-04 05:29N 40°28' E 017°13'0 0.0
2017-Sep-04 04:59N 40°28' E 017°13'0 0.0
2017-Sep-04 04:29N 40°28' E 017°13'0 0.0
2017-Sep-04 03:59N 40°28' E 017°13'0 0.0
2017-Sep-04 03:29N 40°28' E 017°13'0 0.0
2017-Sep-04 02:59N 40°28' E 017°13'0 0.0
2017-Sep-04 02:29N 40°28' E 017°13'0 0.0
2017-Sep-04 01:59N 40°28' E 017°13'0 0.0
2017-Sep-04 01:29N 40°28' E 017°13'0 0.0
2017-Sep-04 00:59N 40°28' E 017°13'0 0.0
2017-Sep-04 00:29N 40°28' E 017°13'0 0.0
2017-Sep-03 23:59N 40°28' E 017°13'0 0.0
2017-Sep-03 23:29N 40°28' E 017°13'0 0.0
2017-Sep-03 22:59N 40°28' E 017°13'0 0.0
2017-Sep-03 22:29N 40°28' E 017°13'0 0.0
2017-Sep-03 21:59N 40°28' E 017°13'0 0.0
2017-Sep-03 21:29N 40°28' E 017°13'0 0.0
2017-Sep-03 20:59N 40°28' E 017°13'0 0.0
2017-Sep-03 20:29N 40°28' E 017°13'0 0.0
2017-Sep-03 19:59N 40°28' E 017°13'0 0.0
2017-Sep-03 19:29N 40°28' E 017°13'0 0.0
2017-Sep-03 18:59N 40°28' E 017°13'0 0.0
2017-Sep-03 18:29N 40°28' E 017°13'0 0.0
2017-Sep-03 17:59N 40°28' E 017°13'0 0.0
2017-Sep-03 17:29N 40°28' E 017°13'0 0.0
2017-Sep-03 16:59N 40°28' E 017°13'0 0.0
2017-Sep-03 16:29N 40°28' E 017°13'0 0.0
2017-Sep-03 15:59N 40°28' E 017°13'0 0.0
2017-Sep-03 15:29N 40°28' E 017°13'0 0.0
2017-Sep-03 14:59N 40°28' E 017°13'0 0.0
2017-Sep-03 13:59N 40°28' E 017°13'0 0.0
2017-Sep-03 13:29N 40°28' E 017°13'0 0.0
2017-Sep-03 12:59N 40°28' E 017°13'0 0.0
2017-Sep-03 12:29N 40°28' E 017°13'0 0.0
2017-Sep-03 11:59N 40°28' E 017°13'0 0.0
2017-Sep-03 11:29N 40°28' E 017°13'0 0.0
2017-Sep-03 10:59N 40°28' E 017°13'0 0.0
2017-Sep-03 10:29N 40°28' E 017°13'0 0.0
2017-Sep-03 09:59N 40°28' E 017°13'0 0.0
2017-Sep-03 09:29N 40°28' E 017°13'0 0.0
2017-Sep-03 08:59N 40°28' E 017°13'0 0.0
2017-Sep-03 08:29N 40°28' E 017°13'0 0.0
2017-Sep-03 07:59N 40°28' E 017°13'0 0.0
2017-Sep-03 07:29N 40°28' E 017°13'0 0.0
2017-Sep-03 06:59N 40°28' E 017°13'0 0.0
2017-Sep-03 06:29N 40°28' E 017°13'0 0.0
2017-Sep-03 05:59N 40°28' E 017°13'0 0.0
2017-Sep-03 05:29N 40°28' E 017°13'0 0.0
2017-Sep-03 04:59N 40°28' E 017°13'0 0.0
2017-Sep-03 04:29N 40°28' E 017°13'0 0.0
2017-Sep-03 03:59N 40°28' E 017°13'0 0.0
2017-Sep-03 03:29N 40°28' E 017°13'0 0.0
2017-Sep-03 02:56N 40°28' E 017°13'0 0.0
2017-Sep-03 02:29N 40°28' E 017°13'0 0.0
2017-Sep-03 01:59N 40°28' E 017°13'0 0.0
2017-Sep-03 01:29N 40°28' E 017°13'0 0.0
2017-Sep-03 00:59N 40°28' E 017°13'0 0.0
2017-Sep-03 00:25N 40°28' E 017°13'0 0.0
2017-Sep-02 23:58N 40°28' E 017°13'0 0.0
2017-Sep-02 23:29N 40°28' E 017°13'0 0.0
2017-Sep-02 22:59N 40°28' E 017°13'0 0.0
2017-Sep-02 22:29N 40°28' E 017°13'0 0.0
2017-Sep-02 21:50N 40°28' E 017°13'0 0.0
2017-Sep-02 21:29N 40°28' E 017°13'0 0.0
2017-Sep-02 20:59N 40°28' E 017°13'0 0.0
2017-Sep-02 20:28N 40°28' E 017°13'  
Track history (hours):
 
Tides and Currents Weather Stations Pressure Air Temp Water Temp Dewpoint Dewpoint Depression Visibility Wind Speed Wind Dir Waves Ship Positions

Medi Chiba

Last reported at 2017-Sep-12 20:13 UTC. Time now 2017-Sep-26 02:06 UTC.
Position N 34°58' W 024°34'.
Warning: this ship's position is 13 days out of date.

Length 229 m; draft 8.2 m.

Type: Cargo ship. MMSI: 356242000.

Date/timePositionNaut miles runAvg speedWind from/ knotsBaromVisibWave heightAir tempDewpointWater temp
2017-Sep-12 20:13N 34°58' W 024°34'  
2017-Sep-09 17:02N 35°58' W 005°38'0 8.7
2017-Sep-09 17:00N 35°58' W 005°38'5 9.2
2017-Sep-09 16:30N 35°59' W 005°33'5 9.2
2017-Sep-09 16:01N 36°01' W 005°27'5 9.3
2017-Sep-09 15:31N 36°03' W 005°23'3 4.7
2017-Sep-09 14:47N 36°06' W 005°21'0 0.1
2017-Sep-09 14:29N 36°06' W 005°21'0 0.1
2017-Sep-09 13:11N 36°07' W 005°21'0 0.0
2017-Sep-09 12:44N 36°07' W 005°21'0 0.2
2017-Sep-09 12:26N 36°07' W 005°21'0 0.1
2017-Sep-09 11:59N 36°07' W 005°21'0 0.2
2017-Sep-09 11:23N 36°07' W 005°22'0 0.1
2017-Sep-09 10:59N 36°07' W 005°22'0 0.2
2017-Sep-09 10:26N 36°07' W 005°21'0 0.0
2017-Sep-09 09:59N 36°07' W 005°21'0 0.2
2017-Sep-09 09:29N 36°06' W 005°21'0 0.1
2017-Sep-09 08:41N 36°06' W 005°21'0 0.1
2017-Sep-09 08:29N 36°06' W 005°21'0 0.1
2017-Sep-09 07:47N 36°06' W 005°21'0 0.1
2017-Sep-09 07:26N 36°06' W 005°21'0 0.1
2017-Sep-09 06:53N 36°06' W 005°21'0 0.2
2017-Sep-09 06:29N 36°06' W 005°21'0 0.1
2017-Sep-09 05:59N 36°06' W 005°21'0 0.1
2017-Sep-09 05:29N 36°06' W 005°21'0 0.0
2017-Sep-09 04:59N 36°06' W 005°21'0 0.1
2017-Sep-09 04:29N 36°06' W 005°21'0 0.0
2017-Sep-09 03:59N 36°06' W 005°22'0 0.1
2017-Sep-09 03:30N 36°06' W 005°22'1 1.8
2017-Sep-09 03:00N 36°05' W 005°21'1 2.9
2017-Sep-09 02:31N 36°05' W 005°19'2 4.6
2017-Sep-09 02:01N 36°04' W 005°17'611.4
2017-Sep-09 01:31N 36°05' W 005°10'611.1
2017-Sep-09 01:00N 36°06' W 005°03'25712.2
2017-Sep-08 03:56N 36°43' E 000°13'613.3
2017-Sep-08 03:28N 36°45' E 000°21'613.3
2017-Sep-08 03:00N 36°46' E 000°28'713.2
2017-Sep-08 02:26N 36°49' E 000°37'613.3
2017-Sep-08 02:00N 36°50' E 000°44'1013.3
2017-Sep-08 01:15N 36°53' E 000°56'39313.2
2017-Sep-06 19:22N 37°59' E 009°04'512.7
2017-Sep-06 19:00N 37°59' E 009°10'4212.8
2017-Sep-06 15:43N 37°60' E 010°04'312.8
2017-Sep-06 15:29N 37°59' E 010°07'612.6
2017-Sep-06 15:00N 37°60' E 010°15'612.7
2017-Sep-06 14:30N 37°60' E 010°23'712.6
2017-Sep-06 13:57N 37°60' E 010°32'1512.7
2017-Sep-06 12:44N 37°60' E 010°51'312.6
2017-Sep-06 12:30N 37°60' E 010°55'13312.7
2017-Sep-06 02:02N 37°02' E 013°26'112.0
2017-Sep-06 01:59N 37°02' E 013°27'912.2
2017-Sep-06 01:12N 36°58' E 013°37'212.3
2017-Sep-06 01:01N 36°57' E 013°40'612.3
2017-Sep-06 00:30N 36°54' E 013°47'612.5
2017-Sep-06 00:00N 36°52' E 013°54'612.6
2017-Sep-05 23:30N 36°49' E 014°02'612.7
2017-Sep-05 23:01N 36°47' E 014°09'612.5
2017-Sep-05 22:30N 36°44' E 014°16'612.5
2017-Sep-05 22:00N 36°41' E 014°23'612.2
2017-Sep-05 21:30N 36°39' E 014°30'612.4
2017-Sep-05 21:01N 36°37' E 014°37'1012.5
2017-Sep-05 20:12N 36°34' E 014°49'412.4
2017-Sep-05 19:54N 36°33' E 014°54'1712.5
2017-Sep-05 18:32N 36°34' E 015°15'8012.3
2017-Sep-05 12:02N 37°39' E 016°14'112.8
2017-Sep-05 12:00N 37°40' E 016°14'12012.7
2017-Sep-05 02:30N 39°29' E 017°18'713.6
2017-Sep-05 01:58N 39°36' E 017°16'613.2
2017-Sep-05 01:29N 39°42' E 017°15'713.0
2017-Sep-05 00:59N 39°49' E 017°13'612.8
2017-Sep-05 00:30N 39°55' E 017°12'612.8
2017-Sep-05 00:00N 40°01' E 017°11'612.9
2017-Sep-04 23:30N 40°07' E 017°09'713.0
2017-Sep-04 23:00N 40°14' E 017°08'713.2
2017-Sep-04 22:30N 40°20' E 017°07'5 9.8
2017-Sep-04 22:00N 40°25' E 017°09'4 7.3
2017-Sep-04 21:30N 40°27' E 017°13'1 2.6
2017-Sep-04 20:59N 40°28' E 017°13'0 0.0
2017-Sep-04 20:29N 40°28' E 017°13'0 0.0
2017-Sep-04 19:59N 40°28' E 017°13'0 0.0
2017-Sep-04 19:29N 40°28' E 017°13'0 0.0
2017-Sep-04 18:59N 40°28' E 017°13'0 0.0
2017-Sep-04 18:29N 40°28' E 017°13'0 0.0
2017-Sep-04 17:59N 40°28' E 017°13'0 0.0
2017-Sep-04 17:29N 40°28' E 017°13'0 0.0
2017-Sep-04 16:59N 40°28' E 017°13'0 0.0
2017-Sep-04 16:29N 40°28' E 017°13'0 0.0
2017-Sep-04 15:59N 40°28' E 017°13'0 0.0
2017-Sep-04 15:29N 40°28' E 017°13'0 0.0
2017-Sep-04 14:59N 40°28' E 017°13'0 0.0
2017-Sep-04 14:29N 40°28' E 017°13'0 0.0
2017-Sep-04 13:59N 40°28' E 017°13'0 0.0
2017-Sep-04 13:29N 40°28' E 017°13'0 0.0
2017-Sep-04 12:59N 40°28' E 017°13'0 0.0
2017-Sep-04 12:29N 40°28' E 017°13'0 0.0
2017-Sep-04 11:59N 40°28' E 017°13'0 0.0
2017-Sep-04 11:29N 40°28' E 017°13'0 0.0
2017-Sep-04 10:59N 40°28' E 017°13'0 0.0
2017-Sep-04 10:26N 40°28' E 017°13'0 0.0
2017-Sep-04 09:59N 40°28' E 017°13'0 0.0
2017-Sep-04 09:29N 40°28' E 017°13'0 0.0
2017-Sep-04 08:59N 40°28' E 017°13'0 0.0
2017-Sep-04 08:29N 40°28' E 017°13'0 0.0
2017-Sep-04 07:59N 40°28' E 017°13'0 0.0
2017-Sep-04 07:29N 40°28' E 017°13'0 0.0
2017-Sep-04 06:59N 40°28' E 017°13'0 0.0
2017-Sep-04 06:29N 40°28' E 017°13'0 0.0
2017-Sep-04 05:59N 40°28' E 017°13'0 0.0
2017-Sep-04 05:29N 40°28' E 017°13'0 0.0
2017-Sep-04 04:59N 40°28' E 017°13'0 0.0
2017-Sep-04 04:29N 40°28' E 017°13'0 0.0
2017-Sep-04 03:59N 40°28' E 017°13'0 0.0
2017-Sep-04 03:29N 40°28' E 017°13'0 0.0
2017-Sep-04 02:59N 40°28' E 017°13'0 0.0
2017-Sep-04 02:29N 40°28' E 017°13'0 0.0
2017-Sep-04 01:59N 40°28' E 017°13'0 0.0
2017-Sep-04 01:29N 40°28' E 017°13'0 0.0
2017-Sep-04 00:59N 40°28' E 017°13'0 0.0
2017-Sep-04 00:29N 40°28' E 017°13'0 0.0
2017-Sep-03 23:59N 40°28' E 017°13'0 0.0
2017-Sep-03 23:29N 40°28' E 017°13'0 0.0
2017-Sep-03 22:59N 40°28' E 017°13'0 0.0
2017-Sep-03 22:29N 40°28' E 017°13'0 0.0
2017-Sep-03 21:59N 40°28' E 017°13'0 0.0
2017-Sep-03 21:29N 40°28' E 017°13'0 0.0
2017-Sep-03 20:59N 40°28' E 017°13'0 0.0
2017-Sep-03 20:29N 40°28' E 017°13'0 0.0
2017-Sep-03 19:59N 40°28' E 017°13'0 0.0
2017-Sep-03 19:29N 40°28' E 017°13'0 0.0
2017-Sep-03 18:59N 40°28' E 017°13'0 0.0
2017-Sep-03 18:29N 40°28' E 017°13'0 0.0
2017-Sep-03 17:59N 40°28' E 017°13'0 0.0
2017-Sep-03 17:29N 40°28' E 017°13'0 0.0
2017-Sep-03 16:59N 40°28' E 017°13'0 0.0
2017-Sep-03 16:29N 40°28' E 017°13'0 0.0
2017-Sep-03 15:59N 40°28' E 017°13'0 0.0
2017-Sep-03 15:29N 40°28' E 017°13'0 0.0
2017-Sep-03 14:59N 40°28' E 017°13'0 0.0
2017-Sep-03 13:59N 40°28' E 017°13'0 0.0
2017-Sep-03 13:29N 40°28' E 017°13'0 0.0
2017-Sep-03 12:59N 40°28' E 017°13'0 0.0
2017-Sep-03 12:29N 40°28' E 017°13'0 0.0
2017-Sep-03 11:59N 40°28' E 017°13'0 0.0
2017-Sep-03 11:29N 40°28' E 017°13'0 0.0
2017-Sep-03 10:59N 40°28' E 017°13'0 0.0
2017-Sep-03 10:29N 40°28' E 017°13'0 0.0
2017-Sep-03 09:59N 40°28' E 017°13'0 0.0
2017-Sep-03 09:29N 40°28' E 017°13'0 0.0
2017-Sep-03 08:59N 40°28' E 017°13'0 0.0
2017-Sep-03 08:29N 40°28' E 017°13'0 0.0
2017-Sep-03 07:59N 40°28' E 017°13'0 0.0
2017-Sep-03 07:29N 40°28' E 017°13'0 0.0
2017-Sep-03 06:59N 40°28' E 017°13'0 0.0
2017-Sep-03 06:29N 40°28' E 017°13'0 0.0
2017-Sep-03 05:59N 40°28' E 017°13'0 0.0
2017-Sep-03 05:29N 40°28' E 017°13'0 0.0
2017-Sep-03 04:59N 40°28' E 017°13'0 0.0
2017-Sep-03 04:29N 40°28' E 017°13'0 0.0
2017-Sep-03 03:59N 40°28' E 017°13'0 0.0
2017-Sep-03 03:29N 40°28' E 017°13'0 0.0
2017-Sep-03 02:56N 40°28' E 017°13'0 0.0
2017-Sep-03 02:29N 40°28' E 017°13'0 0.0
2017-Sep-03 01:59N 40°28' E 017°13'0 0.0
2017-Sep-03 01:29N 40°28' E 017°13'0 0.0
2017-Sep-03 00:59N 40°28' E 017°13'0 0.0
2017-Sep-03 00:25N 40°28' E 017°13'0 0.0
2017-Sep-02 23:58N 40°28' E 017°13'0 0.0
2017-Sep-02 23:29N 40°28' E 017°13'0 0.0
2017-Sep-02 22:59N 40°28' E 017°13'0 0.0
2017-Sep-02 22:29N 40°28' E 017°13'0 0.0
2017-Sep-02 21:50N 40°28' E 017°13'0 0.0
2017-Sep-02 21:29N 40°28' E 017°13'0 0.0
2017-Sep-02 20:59N 40°28' E 017°13'0 0.0
2017-Sep-02 20:28N 40°28' E 017°13'  

Dump ship's entire track history